Monticello Municipal Ellis Field
KLLQ : now visible

Airfield :











YOU CAN JOIN US ON...

 
LOGIN :

Register | Disclaimer

   EN    FR    IT 

 









Legend :    VFR   Marginal VFR   IFR   Intensive IFR   Very Intensive IFR
Visi :
Ceiling :
>= 8 km
>= 3000ft
5 to 8 km
1000 to 3000 ft
1500m to 5 km
500 to 1000 ft
800 to 1500m
200 to 500 ft
< 800m
< 200 ft
Symbols :   Thunderstorms  Fog  Heavy snow  Heavy precipitations  Wind > 20 kt






- Airport Elevation : 270 ft


KLLQ - Monticello Municipal Ellis Field

CURRENT METAR :
  • 280753Z AUTO VRB05KT 1 1/4SM BR OVC002 11/11 A3001 RMK AO2 SLP160 T01110106

EXPIRED METARs :
  • 280653Z AUTO 04006KT 1 1/4SM BR OVC002 11/11 A3002 RMK AO2 SLP165 T01110106
  • 280553Z AUTO 04006KT 1 1/2SM BR OVC002 11/11 A3004 RMK AO2 SLP173 T01110111 10133 20111 401390111 58009

TAF KLLQ
Valid from the 28 at 06:00 until the 29 at 06:00 UTC


280540Z 2806/2906 04006KT 2SM -DZ BR OVC005
TEMPO 2806/2810 1/2SM DZ FG VV002
FM281000 05008KT 5SM -SHRA BR VCTS BKN008 OVC015CB
FM281600 06008KT 4SM -SHRA BR VCTS BKN008 OVC012CB
PROB30 2816/2822 2SM TSRA BR BKN004 OVC008CB
FM290200 VRB05KT 4SM BR VCSH OVC008
KZME FIR / North America



MET'MAP, your aeronautical weather chart ! - Copyright ORBIFLY December 2007 - Disclaimer

ORBIFLY MET'MAP TEAM :

Programming & Development : Alexandra Zaïnal
Concept & original design : Baudouin d'Aumeries
Assistance for programming : Marc-Olivier Méhu
Technical & hardware support : Manuel Goepfert

Contact : metmap@orbifly.com




SOURCES & CREDITS :

   NOAA       Earth
Advisory